sensor_id;sensor_type;location;lat;lon;timestamp;pressure;altitude;pressure_sealevel;temperature;humidity
55486;BME280;71262;-25.924;28.194;2023-11-19T00:01:21;85166.82;;;21.63;38.22
55486;BME280;71262;-25.924;28.194;2023-11-19T00:03:46;85157.72;;;21.48;37.63
55486;BME280;71262;-25.924;28.194;2023-11-19T00:06:12;85156.44;;;21.28;36.31
55486;BME280;71262;-25.924;28.194;2023-11-19T00:08:36;85155.60;;;21.96;37.66
55486;BME280;71262;-25.924;28.194;2023-11-19T00:11:02;85150.48;;;21.60;38.97
55486;BME280;71262;-25.924;28.194;2023-11-19T00:13:27;85148.04;;;21.37;38.44
55486;BME280;71262;-25.924;28.194;2023-11-19T00:15:52;85149.96;;;21.82;37.53
55486;BME280;71262;-25.924;28.194;2023-11-19T00:18:17;85148.39;;;21.66;38.95
55486;BME280;71262;-25.924;28.194;2023-11-19T00:20:42;85145.80;;;21.52;39.51
55486;BME280;71262;-25.924;28.194;2023-11-19T00:23:07;85139.78;;;21.66;37.57
55486;BME280;71262;-25.924;28.194;2023-11-19T00:25:32;85137.74;;;21.74;37.14
55486;BME280;71262;-25.924;28.194;2023-11-19T00:27:57;85142.34;;;22.25;36.57
55486;BME280;71262;-25.924;28.194;2023-11-19T00:30:23;85139.35;;;21.69;36.67
55486;BME280;71262;-25.924;28.194;2023-11-19T00:32:48;85136.93;;;21.88;36.25
55486;BME280;71262;-25.924;28.194;2023-11-19T00:35:13;85135.27;;;21.52;36.23
55486;BME280;71262;-25.924;28.194;2023-11-19T00:37:38;85135.55;;;21.69;36.18
55486;BME280;71262;-25.924;28.194;2023-11-19T00:40:04;85135.05;;;21.72;36.01
55486;BME280;71262;-25.924;28.194;2023-11-19T00:42:28;85134.31;;;21.66;35.94
55486;BME280;71262;-25.924;28.194;2023-11-19T00:44:53;85132.28;;;21.66;35.85
55486;BME280;71262;-25.924;28.194;2023-11-19T00:47:19;85133.38;;;21.57;35.97
55486;BME280;71262;-25.924;28.194;2023-11-19T00:49:43;85134.07;;;21.66;37.65
55486;BME280;71262;-25.924;28.194;2023-11-19T00:52:09;85134.12;;;21.70;39.02
55486;BME280;71262;-25.924;28.194;2023-11-19T00:54:34;85132.47;;;21.34;38.75
55486;BME280;71262;-25.924;28.194;2023-11-19T00:56:59;85132.47;;;21.60;37.03
55486;BME280;71262;-25.924;28.194;2023-11-19T00:59:24;85128.43;;;21.66;38.46
55486;BME280;71262;-25.924;28.194;2023-11-19T01:01:49;85125.82;;;21.72;39.62
55486;BME280;71262;-25.924;28.194;2023-11-19T01:04:14;85121.76;;;21.45;38.46
55486;BME280;71262;-25.924;28.194;2023-11-19T01:06:39;85124.64;;;21.36;37.33
55486;BME280;71262;-25.924;28.194;2023-11-19T01:09:04;85125.93;;;21.33;37.12
55486;BME280;71262;-25.924;28.194;2023-11-19T01:11:29;85126.91;;;21.24;36.70
55486;BME280;71262;-25.924;28.194;2023-11-19T01:13:54;85127.06;;;21.72;36.52
55486;BME280;71262;-25.924;28.194;2023-11-19T01:16:20;85123.03;;;21.67;36.41
55486;BME280;71262;-25.924;28.194;2023-11-19T01:18:46;85118.43;;;21.49;36.25
55486;BME280;71262;-25.924;28.194;2023-11-19T01:21:11;85108.18;;;21.84;35.92
55486;BME280;71262;-25.924;28.194;2023-11-19T01:23:36;85107.73;;;21.49;35.97
55486;BME280;71262;-25.924;28.194;2023-11-19T01:26:01;85104.30;;;21.82;35.70
55486;BME280;71262;-25.924;28.194;2023-11-19T01:28:26;85105.89;;;21.39;35.89
55486;BME280;71262;-25.924;28.194;2023-11-19T01:30:52;85104.03;;;21.33;35.85
55486;BME280;71262;-25.924;28.194;2023-11-19T01:33:17;85102.50;;;21.56;37.11
55486;BME280;71262;-25.924;28.194;2023-11-19T01:35:41;85098.15;;;21.64;38.26
55486;BME280;71262;-25.924;28.194;2023-11-19T01:38:06;85098.59;;;21.68;39.22
55486;BME280;71262;-25.924;28.194;2023-11-19T01:40:31;85103.81;;;21.39;37.45
55486;BME280;71262;-25.924;28.194;2023-11-19T01:42:56;85105.60;;;21.65;37.03
55486;BME280;71262;-25.924;28.194;2023-11-19T01:45:28;85101.85;;;21.60;36.81
55486;BME280;71262;-25.924;28.194;2023-11-19T01:47:46;85100.63;;;21.30;36.66
55486;BME280;71262;-25.924;28.194;2023-11-19T01:50:11;85100.88;;;21.66;36.39
55486;BME280;71262;-25.924;28.194;2023-11-19T01:52:37;85103.17;;;21.91;36.16
55486;BME280;71262;-25.924;28.194;2023-11-19T01:55:02;85098.76;;;21.55;36.17
55486;BME280;71262;-25.924;28.194;2023-11-19T01:57:27;85098.75;;;21.90;36.52
55486;BME280;71262;-25.924;28.194;2023-11-19T01:59:53;85098.63;;;21.66;38.10
55486;BME280;71262;-25.924;28.194;2023-11-19T02:02:17;85104.05;;;21.56;39.17
55486;BME280;71262;-25.924;28.194;2023-11-19T02:04:42;85104.86;;;21.32;38.35
55486;BME280;71262;-25.924;28.194;2023-11-19T02:07:08;85105.84;;;21.60;37.55
55486;BME280;71262;-25.924;28.194;2023-11-19T02:09:32;85110.69;;;21.42;39.05
55486;BME280;71262;-25.924;28.194;2023-11-19T02:11:57;85113.05;;;21.35;40.08
55486;BME280;71262;-25.924;28.194;2023-11-19T02:14:25;85116.49;;;21.49;38.54
55486;BME280;71262;-25.924;28.194;2023-11-19T02:16:47;85125.10;;;21.50;38.46
55486;BME280;71262;-25.924;28.194;2023-11-19T02:19:12;85132.47;;;22.02;39.71
55486;BME280;71262;-25.924;28.194;2023-11-19T02:21:38;85136.72;;;21.73;40.17
55486;BME280;71262;-25.924;28.194;2023-11-19T02:24:06;85138.98;;;21.18;38.50
55486;BME280;71262;-25.924;28.194;2023-11-19T02:26:33;85138.90;;;21.67;37.65
55486;BME280;71262;-25.924;28.194;2023-11-19T02:28:53;85139.20;;;21.67;37.27
55486;BME280;71262;-25.924;28.194;2023-11-19T02:31:18;85140.82;;;21.37;37.12
55486;BME280;71262;-25.924;28.194;2023-11-19T02:33:43;85141.01;;;21.58;36.91
55486;BME280;71262;-25.924;28.194;2023-11-19T02:36:09;85140.87;;;21.62;36.64
55486;BME280;71262;-25.924;28.194;2023-11-19T02:38:34;85140.31;;;21.34;36.48
55486;BME280;71262;-25.924;28.194;2023-11-19T02:40:58;85140.26;;;21.55;36.42
55486;BME280;71262;-25.924;28.194;2023-11-19T02:43:23;85140.05;;;21.38;36.58
55486;BME280;71262;-25.924;28.194;2023-11-19T02:45:49;85138.09;;;21.65;38.10
55486;BME280;71262;-25.924;28.194;2023-11-19T02:48:14;85137.92;;;21.58;39.27
55486;BME280;71262;-25.924;28.194;2023-11-19T02:50:39;85135.24;;;21.44;39.77
55486;BME280;71262;-25.924;28.194;2023-11-19T02:53:04;85132.99;;;21.15;38.30
55486;BME280;71262;-25.924;28.194;2023-11-19T02:55:29;85130.32;;;21.97;38.58
55486;BME280;71262;-25.924;28.194;2023-11-19T02:57:54;85122.67;;;21.60;39.79
55486;BME280;71262;-25.924;28.194;2023-11-19T03:00:20;85117.28;;;21.64;40.19
55486;BME280;71262;-25.924;28.194;2023-11-19T03:02:45;85112.38;;;21.31;38.19
55486;BME280;71262;-25.924;28.194;2023-11-19T03:05:09;85115.10;;;21.34;37.69
55486;BME280;71262;-25.924;28.194;2023-11-19T03:07:34;85119.85;;;21.47;37.32
55486;BME280;71262;-25.924;28.194;2023-11-19T03:10:00;85122.59;;;21.37;37.16
55486;BME280;71262;-25.924;28.194;2023-11-19T03:12:25;85125.49;;;21.29;37.01
55486;BME280;71262;-25.924;28.194;2023-11-19T03:14:50;85125.22;;;21.12;37.06
55486;BME280;71262;-25.924;28.194;2023-11-19T03:17:15;85128.31;;;21.06;37.03
55486;BME280;71262;-25.924;28.194;2023-11-19T03:19:40;85127.08;;;21.31;36.98
55486;BME280;71262;-25.924;28.194;2023-11-19T03:22:05;85130.13;;;21.44;36.66
55486;BME280;71262;-25.924;28.194;2023-11-19T03:24:31;85133.83;;;21.46;36.66
55486;BME280;71262;-25.924;28.194;2023-11-19T03:26:56;85135.25;;;21.39;38.18
55486;BME280;71262;-25.924;28.194;2023-11-19T03:29:21;85135.94;;;21.64;39.29
55486;BME280;71262;-25.924;28.194;2023-11-19T03:31:46;85139.86;;;21.72;40.24
55486;BME280;71262;-25.924;28.194;2023-11-19T03:34:12;85143.04;;;21.45;38.74
55486;BME280;71262;-25.924;28.194;2023-11-19T03:36:37;85144.70;;;21.49;37.72
55486;BME280;71262;-25.924;28.194;2023-11-19T03:39:03;85145.91;;;21.29;37.45
55486;BME280;71262;-25.924;28.194;2023-11-19T03:41:27;85151.83;;;21.51;37.20
55486;BME280;71262;-25.924;28.194;2023-11-19T03:43:54;85157.11;;;21.50;37.01
55486;BME280;71262;-25.924;28.194;2023-11-19T03:46:19;85158.93;;;21.54;38.66
55486;BME280;71262;-25.924;28.194;2023-11-19T03:48:44;85158.55;;;21.38;39.89
55486;BME280;71262;-25.924;28.194;2023-11-19T03:51:09;85159.46;;;21.14;39.71
55486;BME280;71262;-25.924;28.194;2023-11-19T03:53:34;85158.97;;;21.31;38.07
55486;BME280;71262;-25.924;28.194;2023-11-19T03:55:59;85161.38;;;22.01;39.44
55486;BME280;71262;-25.924;28.194;2023-11-19T03:58:24;85160.13;;;21.37;40.60
55486;BME280;71262;-25.924;28.194;2023-11-19T04:00:50;85169.51;;;21.14;39.17
55486;BME280;71262;-25.924;28.194;2023-11-19T04:03:15;85163.84;;;21.81;40.30
55486;BME280;71262;-25.924;28.194;2023-11-19T04:05:40;85169.70;;;21.57;41.19
55486;BME280;71262;-25.924;28.194;2023-11-19T04:08:05;85175.39;;;21.74;42.01
55486;BME280;71262;-25.924;28.194;2023-11-19T04:10:31;85180.72;;;21.82;42.65
55486;BME280;71262;-25.924;28.194;2023-11-19T04:12:55;85180.23;;;21.83;43.28
55486;BME280;71262;-25.924;28.194;2023-11-19T04:15:21;85183.20;;;21.83;44.12
55486;BME280;71262;-25.924;28.194;2023-11-19T04:17:46;85184.74;;;21.76;44.61
55486;BME280;71262;-25.924;28.194;2023-11-19T04:20:11;85185.46;;;21.88;45.00
55486;BME280;71262;-25.924;28.194;2023-11-19T04:22:36;85188.04;;;21.99;45.20
55486;BME280;71262;-25.924;28.194;2023-11-19T04:25:02;85196.00;;;21.72;45.74
55486;BME280;71262;-25.924;28.194;2023-11-19T04:27:28;85204.87;;;22.03;45.96
55486;BME280;71262;-25.924;28.194;2023-11-19T04:29:53;85210.58;;;21.86;46.35
55486;BME280;71262;-25.924;28.194;2023-11-19T04:32:19;85208.56;;;22.12;46.60
55486;BME280;71262;-25.924;28.194;2023-11-19T04:34:44;85212.56;;;21.63;46.69
55486;BME280;71262;-25.924;28.194;2023-11-19T04:37:10;85214.36;;;22.08;46.77
55486;BME280;71262;-25.924;28.194;2023-11-19T04:39:35;85218.29;;;22.01;45.85
55486;BME280;71262;-25.924;28.194;2023-11-19T04:42:01;85217.96;;;21.74;43.21
55486;BME280;71262;-25.924;28.194;2023-11-19T04:44:26;85218.72;;;21.84;41.76
55486;BME280;71262;-25.924;28.194;2023-11-19T04:46:51;85214.52;;;22.17;41.14
55486;BME280;71262;-25.924;28.194;2023-11-19T04:49:16;85211.96;;;22.08;40.41
55486;BME280;71262;-25.924;28.194;2023-11-19T04:51:42;85211.67;;;21.74;39.67
55486;BME280;71262;-25.924;28.194;2023-11-19T04:54:06;85210.89;;;21.79;39.02
55486;BME280;71262;-25.924;28.194;2023-11-19T04:56:31;85211.95;;;21.78;38.13
55486;BME280;71262;-25.924;28.194;2023-11-19T04:58:56;85214.84;;;22.02;37.62
55486;BME280;71262;-25.924;28.194;2023-11-19T05:01:21;85219.04;;;21.82;37.92
55486;BME280;71262;-25.924;28.194;2023-11-19T05:03:47;85226.78;;;22.09;37.95
55486;BME280;71262;-25.924;28.194;2023-11-19T05:06:12;85232.27;;;21.71;37.35
55486;BME280;71262;-25.924;28.194;2023-11-19T05:08:37;85237.68;;;21.34;36.98
55486;BME280;71262;-25.924;28.194;2023-11-19T05:11:02;85236.28;;;21.93;36.60
55486;BME280;71262;-25.924;28.194;2023-11-19T05:13:27;85233.37;;;21.43;36.42
55486;BME280;71262;-25.924;28.194;2023-11-19T05:15:52;85233.70;;;21.72;36.18
55486;BME280;71262;-25.924;28.194;2023-11-19T05:18:17;85235.75;;;21.43;35.98
55486;BME280;71262;-25.924;28.194;2023-11-19T05:20:42;85237.83;;;21.65;35.47
55486;BME280;71262;-25.924;28.194;2023-11-19T05:23:07;85243.42;;;21.87;35.14
55486;BME280;71262;-25.924;28.194;2023-11-19T05:25:32;85247.01;;;21.77;34.87
55486;BME280;71262;-25.924;28.194;2023-11-19T05:27:57;85251.85;;;21.79;34.68
55486;BME280;71262;-25.924;28.194;2023-11-19T05:30:22;85252.99;;;21.75;34.81
55486;BME280;71262;-25.924;28.194;2023-11-19T05:32:47;85253.00;;;21.82;34.43
55486;BME280;71262;-25.924;28.194;2023-11-19T05:35:13;85255.07;;;21.55;34.27
55486;BME280;71262;-25.924;28.194;2023-11-19T05:37:37;85258.19;;;21.59;33.98
55486;BME280;71262;-25.924;28.194;2023-11-19T05:40:03;85259.48;;;21.65;34.06
55486;BME280;71262;-25.924;28.194;2023-11-19T05:42:27;85263.14;;;21.66;34.03
55486;BME280;71262;-25.924;28.194;2023-11-19T05:44:53;85265.61;;;21.44;34.07
55486;BME280;71262;-25.924;28.194;2023-11-19T05:47:18;85262.19;;;21.71;34.07
55486;BME280;71262;-25.924;28.194;2023-11-19T05:49:43;85263.20;;;21.46;33.91
55486;BME280;71262;-25.924;28.194;2023-11-19T05:52:08;85262.18;;;21.79;33.59
55486;BME280;71262;-25.924;28.194;2023-11-19T05:54:33;85258.80;;;21.61;33.32
55486;BME280;71262;-25.924;28.194;2023-11-19T05:56:59;85258.42;;;21.63;33.24
55486;BME280;71262;-25.924;28.194;2023-11-19T05:59:24;85259.12;;;21.93;33.23
55486;BME280;71262;-25.924;28.194;2023-11-19T06:01:49;85257.70;;;21.72;33.22
55486;BME280;71262;-25.924;28.194;2023-11-19T06:04:14;85257.91;;;21.75;33.19
55486;BME280;71262;-25.924;28.194;2023-11-19T06:06:40;85259.55;;;21.74;33.25
55486;BME280;71262;-25.924;28.194;2023-11-19T06:09:06;85258.16;;;21.77;33.38
55486;BME280;71262;-25.924;28.194;2023-11-19T06:11:31;85258.95;;;21.85;33.51
55486;BME280;71262;-25.924;28.194;2023-11-19T06:13:56;85261.46;;;21.88;33.56
55486;BME280;71262;-25.924;28.194;2023-11-19T06:16:21;85261.55;;;21.91;33.75
55486;BME280;71262;-25.924;28.194;2023-11-19T06:18:46;85262.47;;;21.94;33.87
55486;BME280;71262;-25.924;28.194;2023-11-19T06:21:11;85258.37;;;22.05;33.35
55486;BME280;71262;-25.924;28.194;2023-11-19T06:23:36;85257.25;;;22.05;32.96
55486;BME280;71262;-25.924;28.194;2023-11-19T06:26:01;85255.55;;;22.11;32.77
55486;BME280;71262;-25.924;28.194;2023-11-19T06:28:26;85254.76;;;22.44;32.61
55486;BME280;71262;-25.924;28.194;2023-11-19T06:30:51;85254.23;;;22.42;32.48
55486;BME280;71262;-25.924;28.194;2023-11-19T06:33:17;85255.45;;;22.24;32.45
55486;BME280;71262;-25.924;28.194;2023-11-19T06:35:43;85253.70;;;22.07;32.24
55486;BME280;71262;-25.924;28.194;2023-11-19T06:38:08;85257.50;;;22.04;32.05
55486;BME280;71262;-25.924;28.194;2023-11-19T06:40:34;85259.75;;;22.09;31.83
55486;BME280;71262;-25.924;28.194;2023-11-19T06:43:01;85261.36;;;22.11;31.66
55486;BME280;71262;-25.924;28.194;2023-11-19T06:45:25;85263.87;;;22.06;31.61
55486;BME280;71262;-25.924;28.194;2023-11-19T06:47:50;85266.53;;;22.06;31.65
55486;BME280;71262;-25.924;28.194;2023-11-19T06:50:16;85263.90;;;22.15;31.34
55486;BME280;71262;-25.924;28.194;2023-11-19T06:52:41;85265.62;;;22.13;31.36
55486;BME280;71262;-25.924;28.194;2023-11-19T06:55:07;85263.06;;;22.15;31.25
55486;BME280;71262;-25.924;28.194;2023-11-19T06:57:32;85267.00;;;22.23;30.93
55486;BME280;71262;-25.924;28.194;2023-11-19T06:59:58;85266.96;;;22.21;30.82
55486;BME280;71262;-25.924;28.194;2023-11-19T07:02:23;85269.35;;;22.23;30.92
55486;BME280;71262;-25.924;28.194;2023-11-19T07:04:48;85267.63;;;22.31;30.74
55486;BME280;71262;-25.924;28.194;2023-11-19T07:07:13;85264.32;;;22.24;30.92
55486;BME280;71262;-25.924;28.194;2023-11-19T07:09:39;85264.88;;;22.21;30.94
55486;BME280;71262;-25.924;28.194;2023-11-19T07:12:05;85268.01;;;22.26;30.99
55486;BME280;71262;-25.924;28.194;2023-11-19T07:14:30;85269.11;;;22.31;31.00
55486;BME280;71262;-25.924;28.194;2023-11-19T07:16:56;85267.95;;;22.33;30.98
55486;BME280;71262;-25.924;28.194;2023-11-19T07:19:21;85266.41;;;22.34;31.05
55486;BME280;71262;-25.924;28.194;2023-11-19T07:21:46;85267.19;;;22.38;30.95
55486;BME280;71262;-25.924;28.194;2023-11-19T07:24:12;85269.03;;;22.38;31.00
55486;BME280;71262;-25.924;28.194;2023-11-19T07:26:42;85267.43;;;22.38;30.95
55486;BME280;71262;-25.924;28.194;2023-11-19T07:29:03;85264.85;;;22.37;30.96
55486;BME280;71262;-25.924;28.194;2023-11-19T07:31:28;85264.53;;;22.37;30.96
55486;BME280;71262;-25.924;28.194;2023-11-19T07:33:54;85260.09;;;22.42;30.87
55486;BME280;71262;-25.924;28.194;2023-11-19T07:36:19;85256.14;;;22.44;30.85
55486;BME280;71262;-25.924;28.194;2023-11-19T07:38:46;85259.66;;;22.41;30.70
55486;BME280;71262;-25.924;28.194;2023-11-19T07:41:10;85260.24;;;22.54;30.48
55486;BME280;71262;-25.924;28.194;2023-11-19T07:43:35;85260.45;;;22.46;30.34
55486;BME280;71262;-25.924;28.194;2023-11-19T07:46:01;85256.80;;;22.46;30.19
55486;BME280;71262;-25.924;28.194;2023-11-19T07:48:26;85250.71;;;22.54;29.91
55486;BME280;71262;-25.924;28.194;2023-11-19T07:50:53;85249.57;;;22.49;29.92
55486;BME280;71262;-25.924;28.194;2023-11-19T07:53:18;85243.12;;;22.64;30.32
55486;BME280;71262;-25.924;28.194;2023-11-19T07:55:43;85239.83;;;22.60;30.60
55486;BME280;71262;-25.924;28.194;2023-11-19T07:58:08;85238.77;;;22.72;30.34
55486;BME280;71262;-25.924;28.194;2023-11-19T08:00:33;85236.65;;;22.75;30.31
55486;BME280;71262;-25.924;28.194;2023-11-19T08:02:59;85234.37;;;22.76;30.84
55486;BME280;71262;-25.924;28.194;2023-11-19T08:05:24;85234.05;;;22.69;31.43
55486;BME280;71262;-25.924;28.194;2023-11-19T08:07:50;85233.11;;;22.55;31.72
55486;BME280;71262;-25.924;28.194;2023-11-19T08:10:15;85229.36;;;22.59;31.70
55486;BME280;71262;-25.924;28.194;2023-11-19T08:12:41;85227.90;;;22.45;31.65
55486;BME280;71262;-25.924;28.194;2023-11-19T08:15:08;85227.28;;;22.73;31.68
55486;BME280;71262;-25.924;28.194;2023-11-19T08:17:32;85225.82;;;22.71;31.82
55486;BME280;71262;-25.924;28.194;2023-11-19T08:19:58;85229.14;;;22.50;32.17
55486;BME280;71262;-25.924;28.194;2023-11-19T08:22:24;85224.72;;;22.74;32.36
55486;BME280;71262;-25.924;28.194;2023-11-19T08:24:49;85225.25;;;22.74;32.17
55486;BME280;71262;-25.924;28.194;2023-11-19T08:27:14;85221.22;;;22.79;32.19
55486;BME280;71262;-25.924;28.194;2023-11-19T08:29:39;85217.26;;;22.82;32.19
55486;BME280;71262;-25.924;28.194;2023-11-19T08:32:05;85215.33;;;22.77;32.36
55486;BME280;71262;-25.924;28.194;2023-11-19T08:34:29;85211.48;;;22.81;32.09
55486;BME280;71262;-25.924;28.194;2023-11-19T08:36:55;85208.66;;;22.75;32.26
55486;BME280;71262;-25.924;28.194;2023-11-19T08:39:20;85206.93;;;22.55;32.91
55486;BME280;71262;-25.924;28.194;2023-11-19T08:41:45;85198.86;;;23.03;32.28
55486;BME280;71262;-25.924;28.194;2023-11-19T08:44:10;85204.06;;;23.28;32.02
55486;BME280;71262;-25.924;28.194;2023-11-19T08:46:35;85203.81;;;23.23;32.47
55486;BME280;71262;-25.924;28.194;2023-11-19T08:49:00;85200.32;;;23.35;33.04
55486;BME280;71262;-25.924;28.194;2023-11-19T08:51:26;85198.62;;;23.18;32.95
55486;BME280;71262;-25.924;28.194;2023-11-19T08:53:51;85193.93;;;23.24;33.11
55486;BME280;71262;-25.924;28.194;2023-11-19T08:56:16;85189.68;;;23.22;33.39
55486;BME280;71262;-25.924;28.194;2023-11-19T08:58:42;85185.19;;;23.09;33.86
55486;BME280;71262;-25.924;28.194;2023-11-19T09:01:07;85184.99;;;23.05;34.00
55486;BME280;71262;-25.924;28.194;2023-11-19T09:03:33;85181.19;;;23.24;34.24
55486;BME280;71262;-25.924;28.194;2023-11-19T09:05:58;85179.96;;;23.11;33.96
55486;BME280;71262;-25.924;28.194;2023-11-19T09:08:23;85182.59;;;22.94;34.60
55486;BME280;71262;-25.924;28.194;2023-11-19T09:10:48;85178.26;;;23.16;34.63
55486;BME280;71262;-25.924;28.194;2023-11-19T09:13:13;85172.74;;;22.68;34.83
55486;BME280;71262;-25.924;28.194;2023-11-19T09:15:38;85172.09;;;23.25;35.05
55486;BME280;71262;-25.924;28.194;2023-11-19T09:18:04;85169.91;;;23.21;35.29
55486;BME280;71262;-25.924;28.194;2023-11-19T09:20:29;85166.73;;;23.58;35.19
55486;BME280;71262;-25.924;28.194;2023-11-19T09:22:54;85161.94;;;23.58;35.16
55486;BME280;71262;-25.924;28.194;2023-11-19T09:25:19;85160.80;;;23.36;35.47
55486;BME280;71262;-25.924;28.194;2023-11-19T09:27:44;85158.19;;;23.16;35.90
55486;BME280;71262;-25.924;28.194;2023-11-19T09:30:10;85161.70;;;22.95;36.16
55486;BME280;71262;-25.924;28.194;2023-11-19T09:32:34;85164.92;;;23.38;35.95
55486;BME280;71262;-25.924;28.194;2023-11-19T09:34:59;85163.08;;;23.38;35.80
55486;BME280;71262;-25.924;28.194;2023-11-19T09:37:24;85164.20;;;23.59;35.67
55486;BME280;71262;-25.924;28.194;2023-11-19T09:39:49;85163.54;;;23.51;35.63
55486;BME280;71262;-25.924;28.194;2023-11-19T09:42:14;85161.46;;;23.42;35.58
55486;BME280;71262;-25.924;28.194;2023-11-19T09:44:40;85160.04;;;23.28;35.80
55486;BME280;71262;-25.924;28.194;2023-11-19T09:47:05;85158.07;;;23.09;35.83
55486;BME280;71262;-25.924;28.194;2023-11-19T09:49:30;85151.64;;;23.38;35.70
55486;BME280;71262;-25.924;28.194;2023-11-19T09:51:55;85151.76;;;22.83;35.74
55486;BME280;71262;-25.924;28.194;2023-11-19T09:54:20;85148.96;;;23.34;36.00
55486;BME280;71262;-25.924;28.194;2023-11-19T09:56:45;85153.88;;;23.24;36.32
55486;BME280;71262;-25.924;28.194;2023-11-19T09:59:10;85142.56;;;22.94;36.47
55486;BME280;71262;-25.924;28.194;2023-11-19T10:01:36;85139.94;;;23.66;36.32
55486;BME280;71262;-25.924;28.194;2023-11-19T10:04:00;85137.91;;;23.18;36.52
55486;BME280;71262;-25.924;28.194;2023-11-19T10:06:25;85132.29;;;23.38;36.61
55486;BME280;71262;-25.924;28.194;2023-11-19T10:08:50;85127.77;;;23.28;36.79
55486;BME280;71262;-25.924;28.194;2023-11-19T10:11:15;85126.80;;;23.25;37.02
55486;BME280;71262;-25.924;28.194;2023-11-19T10:13:40;85122.43;;;23.23;37.17
55486;BME280;71262;-25.924;28.194;2023-11-19T10:16:08;85121.52;;;23.64;37.03
55486;BME280;71262;-25.924;28.194;2023-11-19T10:18:30;85120.40;;;23.51;37.38
55486;BME280;71262;-25.924;28.194;2023-11-19T10:20:55;85116.64;;;23.32;37.64
55486;BME280;71262;-25.924;28.194;2023-11-19T10:23:20;85111.92;;;23.39;37.27
55486;BME280;71262;-25.924;28.194;2023-11-19T10:25:45;85108.56;;;23.09;36.95
55486;BME280;71262;-25.924;28.194;2023-11-19T10:28:11;85108.19;;;23.34;37.38
55486;BME280;71262;-25.924;28.194;2023-11-19T10:30:36;85105.08;;;23.48;37.70
55486;BME280;71262;-25.924;28.194;2023-11-19T10:33:04;85098.99;;;23.28;37.63
55486;BME280;71262;-25.924;28.194;2023-11-19T10:35:26;85094.34;;;23.31;37.46
55486;BME280;71262;-25.924;28.194;2023-11-19T10:37:51;85088.91;;;23.33;37.25
55486;BME280;71262;-25.924;28.194;2023-11-19T10:40:16;85086.34;;;23.03;37.22
55486;BME280;71262;-25.924;28.194;2023-11-19T10:42:42;85080.35;;;23.32;37.18
55486;BME280;71262;-25.924;28.194;2023-11-19T10:47:32;85072.55;;;23.47;36.99
55486;BME280;71262;-25.924;28.194;2023-11-19T10:49:56;85070.88;;;23.76;36.92
55486;BME280;71262;-25.924;28.194;2023-11-19T10:52:21;85067.05;;;23.81;36.99
55486;BME280;71262;-25.924;28.194;2023-11-19T10:54:49;85065.90;;;23.72;37.26
55486;BME280;71262;-25.924;28.194;2023-11-19T10:57:13;85066.35;;;23.52;37.52
55486;BME280;71262;-25.924;28.194;2023-11-19T10:59:38;85060.78;;;23.61;37.44
55486;BME280;71262;-25.924;28.194;2023-11-19T11:02:06;85059.64;;;23.64;37.52
55486;BME280;71262;-25.924;28.194;2023-11-19T11:04:31;85058.05;;;23.62;37.59
55486;BME280;71262;-25.924;28.194;2023-11-19T11:06:55;85055.48;;;23.67;37.58
55486;BME280;71262;-25.924;28.194;2023-11-19T11:09:19;85051.99;;;23.66;37.59
55486;BME280;71262;-25.924;28.194;2023-11-19T11:11:47;85047.33;;;23.37;37.68
55486;BME280;71262;-25.924;28.194;2023-11-19T11:14:11;85043.36;;;23.63;37.67
55486;BME280;71262;-25.924;28.194;2023-11-19T11:16:35;85042.62;;;23.28;37.84
55486;BME280;71262;-25.924;28.194;2023-11-19T11:19:00;85040.10;;;23.26;37.84
55486;BME280;71262;-25.924;28.194;2023-11-19T11:21:26;85040.71;;;23.65;37.69
55486;BME280;71262;-25.924;28.194;2023-11-19T11:24:04;85038.71;;;23.56;37.81
55486;BME280;71262;-25.924;28.194;2023-11-19T11:26:29;85036.54;;;23.40;37.98
55486;BME280;71262;-25.924;28.194;2023-11-19T11:28:44;85032.06;;;23.05;38.08
55486;BME280;71262;-25.924;28.194;2023-11-19T11:31:16;85027.30;;;23.16;36.97
55486;BME280;71262;-25.924;28.194;2023-11-19T11:33:41;85018.52;;;23.32;35.89
55486;BME280;71262;-25.924;28.194;2023-11-19T11:36:04;85013.51;;;24.07;35.59
55486;BME280;71262;-25.924;28.194;2023-11-19T11:38:23;85009.69;;;23.82;36.00
55486;BME280;71262;-25.924;28.194;2023-11-19T11:45:37;84994.16;;;23.66;36.76
55486;BME280;71262;-25.924;28.194;2023-11-19T11:50:27;84994.46;;;23.94;36.85
55486;BME280;71262;-25.924;28.194;2023-11-19T11:55:18;84985.49;;;23.71;37.36
55486;BME280;71262;-25.924;28.194;2023-11-19T11:57:44;84983.72;;;23.65;37.52
55486;BME280;71262;-25.924;28.194;2023-11-19T12:00:13;84981.02;;;23.65;37.53
55486;BME280;71262;-25.924;28.194;2023-11-19T12:02:35;84974.16;;;23.50;37.78
55486;BME280;71262;-25.924;28.194;2023-11-19T12:05:01;84970.52;;;23.63;37.44
55486;BME280;71262;-25.924;28.194;2023-11-19T12:07:25;84966.52;;;23.65;37.47
55486;BME280;71262;-25.924;28.194;2023-11-19T12:09:52;84962.56;;;23.80;37.50
55486;BME280;71262;-25.924;28.194;2023-11-19T12:12:20;84958.65;;;23.61;37.45
55486;BME280;71262;-25.924;28.194;2023-11-19T12:19:30;84953.68;;;23.85;37.48
55486;BME280;71262;-25.924;28.194;2023-11-19T12:21:55;84951.26;;;23.79;37.56
55486;BME280;71262;-25.924;28.194;2023-11-19T12:24:20;84945.89;;;23.78;37.58
55486;BME280;71262;-25.924;28.194;2023-11-19T12:26:45;84943.01;;;23.34;37.82
55486;BME280;71262;-25.924;28.194;2023-11-19T12:29:10;84941.21;;;23.62;37.84
55486;BME280;71262;-25.924;28.194;2023-11-19T12:31:35;84938.16;;;23.72;37.76
55486;BME280;71262;-25.924;28.194;2023-11-19T12:34:00;84932.82;;;23.46;37.84
55486;BME280;71262;-25.924;28.194;2023-11-19T12:36:25;84925.17;;;23.53;37.88
55486;BME280;71262;-25.924;28.194;2023-11-19T12:38:50;84924.65;;;23.66;37.81
55486;BME280;71262;-25.924;28.194;2023-11-19T12:41:15;84921.81;;;23.41;37.78
55486;BME280;71262;-25.924;28.194;2023-11-19T12:43:41;84920.41;;;23.85;37.90
55486;BME280;71262;-25.924;28.194;2023-11-19T12:48:31;84917.98;;;23.61;37.86